Vossem Meer informatie Vossem


Tervuren markt Meer informatie Tervuren markt


Tervuren park Meer informatie Tervuren park


Bezoek onze andere website:

Meteotemplate

Home Weather Station

Saratoga


Lokaal brand risico:
CBI


Regionaal brand risico: Meer informatie



METAR rapporten vliegvelden

   
EBBR - Brussels
Gewijzigd: Oct 19 2019 9:50 pm
Helder  
Helder  
   Wind: Zuiden 11.1 km/h
Wind: Zuiden 11.1 km/h
Temperatuur: 10°C
Voelt als: 8°C
Dauwpunt: 9°C
Vochtigheid: 94%
Barometer: 1006 mb
Zicht: meer dan 10 km
Bewolking: Helder
EBBR 191950Z 19006KT CAVOK 10/09 Q1006 NOSIG
EBAW - Antwerp
Gewijzigd: Oct 19 2019 9:50 pm
Helder  
Helder  
   Wind: ZZW 9.3 km/h
Wind: ZZW 9.3 km/h
Temperatuur: 11°C
Dauwpunt: 9°C
Vochtigheid: 88%
Barometer: 1005 mb
Zicht: meer dan 10 km
Bewolking: Helder
EBAW 191950Z 20005KT CAVOK 11/09 Q1005 NOSIG
EHBK - Maastricht
Gewijzigd: Oct 19 2019 9:55 pm
Gedeeltelijk bewolkt  
Gedeeltelijk bewolkt  
   Wind: Zuiden 9.3 km/h
Wind: Zuiden 9.3 km/h
Temperatuur: 11°C
Dauwpunt: 10°C
Vochtigheid: 94%
Barometer: 1006 mb
Bewolking: Gedeeltelijk bewolkt
Zicht: meer dan 10 km
Bewolking: Gedeeltelijk bewolkt
EHBK 191955Z AUTO 19005KT 9999 NSC 11/10 Q1006 NOSIG
EDLV - Nijmegen
Gewijzigd: Oct 19 2019 9:50 pm
Helder  
Helder  
   Wind: Zuiden 9.3 km/h
Wind: Zuiden 9.3 km/h
Temperatuur: 11°C
Dauwpunt: 10°C
Vochtigheid: 94%
Barometer: 1006 mb
Zicht: meer dan 10 km
Bewolking: Helder
EDLV 191950Z 18005KT CAVOK 11/10 Q1006
EHRD - Rotterdam
Gewijzigd: Oct 19 2019 9:55 pm
Gedeeltelijk bewolkt  
Gedeeltelijk bewolkt  
   Wind: Zuiden 14.8 km/h
Wind: Zuiden 14.8 km/h
Temperatuur: 11°C
Dauwpunt: 10°C
Vochtigheid: 94%
Barometer: 1004 mb
Bewolking: Gedeeltelijk bewolkt
Zicht: meer dan 10 km
Bewolking: Gedeeltelijk bewolkt
EHRD 191955Z AUTO 19008KT 160V220 9999 NSC 11/10 Q1004 NOSIG
 

Script ontwikkeld door  Saratoga-weather.org Aangepast voor de template door  Weerstation Leuven

U vindt ons ook hier:

Het Weer Aktueel

UK Metoffice

European Weather Network

WeatherCloud

Weather Underground

Benelux Weer Netwerk

AWEKAS

Citizen Weather Observer Program (CWOP)

Apparatuur in gebruik:

Weerstation
Davis VP2

Weerprogramma
Meteobridge

Weercomputer
TP-Link MR3020

Davis VP2

Meteobridge

TP-Link MR3020